createdAt,value
2018-04-29T00:01:32.084Z,93.60
2018-04-29T00:05:34.816Z,93.80
2018-04-29T00:09:37.643Z,93.80
2018-04-29T00:13:40.386Z,93.80
2018-04-29T00:17:43.109Z,94.00
2018-04-29T00:21:45.881Z,94.00
2018-04-29T00:25:48.646Z,94.20
2018-04-29T00:29:52.147Z,94.20
2018-04-29T00:33:54.895Z,94.10
2018-04-29T00:38:01.878Z,94.30
2018-04-29T00:42:04.676Z,94.50
2018-04-29T00:46:07.468Z,94.90
2018-04-29T00:50:10.215Z,94.50
2018-04-29T00:54:13.111Z,95.10
2018-04-29T00:58:15.918Z,94.90
2018-04-29T01:02:18.778Z,95.10
2018-04-29T01:06:21.525Z,95.00
2018-04-29T01:10:24.406Z,94.40
2018-04-29T01:14:27.165Z,94.00
2018-04-29T01:18:29.993Z,94.70
2018-04-29T01:22:32.712Z,95.20
2018-04-29T01:26:35.537Z,95.10
2018-04-29T01:30:39.053Z,95.30
2018-04-29T01:34:45.743Z,95.30
2018-04-29T01:38:53.097Z,95.00
2018-04-29T01:42:55.906Z,95.00
2018-04-29T01:46:58.721Z,94.80
2018-04-29T01:51:02.273Z,95.20
2018-04-29T01:55:05.065Z,95.10
2018-04-29T01:59:07.803Z,95.30
2018-04-29T02:03:10.601Z,95.60
2018-04-29T02:07:13.329Z,95.60
2018-04-29T02:11:16.214Z,95.90
2018-04-29T02:15:18.954Z,95.60
2018-04-29T02:19:21.758Z,95.50
2018-04-29T02:23:24.466Z,95.10
2018-04-29T02:27:27.207Z,95.50
2018-04-29T02:31:30.240Z,95.50
2018-04-29T02:35:32.817Z,95.50
2018-04-29T02:39:36.309Z,95.50
2018-04-29T02:43:39.145Z,95.50
2018-04-29T02:47:42.668Z,95.40
2018-04-29T02:51:45.397Z,95.30
2018-04-29T02:55:48.130Z,95.50
2018-04-29T02:59:50.895Z,95.50
2018-04-29T03:03:53.616Z,95.40
2018-04-29T03:07:57.225Z,95.40
2018-04-29T03:11:59.951Z,95.40
2018-04-29T03:16:07.406Z,95.50
2018-04-29T03:20:10.158Z,95.50
2018-04-29T03:24:17.592Z,95.40
2018-04-29T03:28:20.389Z,95.50
2018-04-29T03:32:23.398Z,95.70
2018-04-29T03:36:26.280Z,95.80
2018-04-29T03:40:29.015Z,95.90
2018-04-29T03:44:32.659Z,95.90
2018-04-29T03:48:36.173Z,95.90
2018-04-29T03:52:39.106Z,95.90
2018-04-29T03:56:41.826Z,95.70
2018-04-29T04:00:56.416Z,95.80
2018-04-29T04:04:59.144Z,95.90
2018-04-29T04:09:06.072Z,95.90
2018-04-29T04:13:08.789Z,96.00
2018-04-29T04:17:11.570Z,95.90
2018-04-29T04:21:14.306Z,95.70
2018-04-29T04:25:17.794Z,95.90
2018-04-29T04:29:20.541Z,95.90
2018-04-29T04:33:23.441Z,96.00
2018-04-29T04:37:26.173Z,95.90
2018-04-29T04:41:28.881Z,95.80
2018-04-29T04:45:31.811Z,95.70
2018-04-29T04:49:34.571Z,95.60
2018-04-29T04:53:37.385Z,95.70
2018-04-29T04:57:40.252Z,96.00
2018-04-29T05:01:43.001Z,95.80
2018-04-29T05:05:46.637Z,95.70
2018-04-29T05:09:49.505Z,95.70
2018-04-29T05:13:53.212Z,95.80
2018-04-29T05:17:56.066Z,95.80
2018-04-29T05:21:58.801Z,95.40
2018-04-29T05:26:01.609Z,95.50
2018-04-29T05:30:04.407Z,95.50
2018-04-29T05:34:07.162Z,95.60
2018-04-29T05:38:09.945Z,95.40
2018-04-29T05:42:12.699Z,95.10
2018-04-29T05:46:15.490Z,95.00
2018-04-29T05:50:18.229Z,95.10
2018-04-29T05:54:21.831Z,94.90
2018-04-29T05:58:24.599Z,94.90
2018-04-29T06:02:27.607Z,94.70
2018-04-29T06:06:30.458Z,94.50
2018-04-29T06:10:36.570Z,94.30
2018-04-29T06:14:39.341Z,94.30
2018-04-29T06:18:42.397Z,93.40
2018-04-29T06:22:46.288Z,92.30
2018-04-29T06:26:49.040Z,92.10
2018-04-29T06:30:56.458Z,92.20
2018-04-29T06:34:59.172Z,92.20
2018-04-29T06:39:01.919Z,92.70
2018-04-29T06:43:04.774Z,90.20
2018-04-29T06:47:07.985Z,91.50
2018-04-29T06:51:10.775Z,91.20
2018-04-29T06:55:13.620Z,90.30
2018-04-29T06:59:16.331Z,90.40
2018-04-29T07:03:19.840Z,87.60
2018-04-29T07:07:23.386Z,87.90
2018-04-29T07:11:26.116Z,87.90
2018-04-29T07:15:28.839Z,84.10
2018-04-29T07:19:31.767Z,84.10
2018-04-29T07:23:34.511Z,80.20
2018-04-29T07:27:37.246Z,73.10
2018-04-29T07:31:40.863Z,67.20
2018-04-29T07:35:44.345Z,63.30
2018-04-29T07:39:47.234Z,63.20
2018-04-29T07:43:50.019Z,62.60
2018-04-29T07:47:52.783Z,62.80
2018-04-29T07:51:56.337Z,62.00
2018-04-29T07:55:59.083Z,61.30
2018-04-29T08:00:02.938Z,59.60
2018-04-29T08:04:05.763Z,59.60
2018-04-29T08:08:08.519Z,59.40
2018-04-29T08:12:12.153Z,56.10
2018-04-29T08:16:14.872Z,54.80
2018-04-29T08:20:17.614Z,55.10
2018-04-29T08:24:21.193Z,52.50
2018-04-29T08:28:23.892Z,52.30
2018-04-29T08:32:26.700Z,50.60
2018-04-29T08:36:31.094Z,50.40
2018-04-29T08:40:33.986Z,49.60
2018-04-29T08:44:36.758Z,45.00
2018-04-29T08:48:40.512Z,44.10
2018-04-29T08:52:44.109Z,44.20
2018-04-29T08:56:48.981Z,44.10
2018-04-29T09:00:51.725Z,41.50
2018-04-29T09:04:55.218Z,40.30
2018-04-29T09:08:59.229Z,40.90
2018-04-29T09:13:01.994Z,40.00
2018-04-29T09:17:05.051Z,37.70
2018-04-29T09:21:07.778Z,38.00
2018-04-29T09:25:10.544Z,39.30
2018-04-29T09:29:14.309Z,40.30
2018-04-29T09:33:17.072Z,39.80
2018-04-29T09:37:19.785Z,38.90
2018-04-29T09:41:23.544Z,41.20
2018-04-29T09:45:27.109Z,40.10
2018-04-29T09:49:29.874Z,40.10
2018-04-29T09:53:33.614Z,40.10
2018-04-29T09:57:36.377Z,38.40
2018-04-29T10:01:39.241Z,37.70
2018-04-29T10:05:42.082Z,39.70
2018-04-29T10:09:44.889Z,40.10
2018-04-29T10:13:47.661Z,37.80
2018-04-29T10:17:50.435Z,36.10
2018-04-29T10:21:53.213Z,37.80
2018-04-29T10:25:56.726Z,37.80
2018-04-29T10:30:00.262Z,36.80
2018-04-29T10:34:03.058Z,36.70
2018-04-29T10:38:06.583Z,34.00
2018-04-29T10:42:09.519Z,33.90
2018-04-29T10:46:12.237Z,34.50
2018-04-29T10:50:15.104Z,33.30
2018-04-29T10:54:18.678Z,32.90
2018-04-29T10:58:22.167Z,32.00
2018-04-29T11:02:24.978Z,31.90
2018-04-29T11:06:27.760Z,31.30
2018-04-29T11:10:30.469Z,32.50
2018-04-29T11:14:35.426Z,30.70
2018-04-29T11:18:38.924Z,29.20
2018-04-29T11:22:47.579Z,29.20
2018-04-29T11:26:51.113Z,27.10
2018-04-29T11:30:53.974Z,27.10
2018-04-29T11:34:57.753Z,28.40
2018-04-29T11:39:00.474Z,26.70
2018-04-29T11:43:03.367Z,29.40
2018-04-29T11:47:06.103Z,28.30
2018-04-29T11:51:09.802Z,26.10
2018-04-29T11:55:12.573Z,26.10
2018-04-29T11:59:16.053Z,25.10
2018-04-29T12:03:18.799Z,25.20
2018-04-29T12:07:21.738Z,24.70
2018-04-29T12:11:24.491Z,26.30
2018-04-29T12:15:27.223Z,26.10
2018-04-29T12:19:30.735Z,24.30
2018-04-29T12:23:34.218Z,23.30
2018-04-29T12:27:36.956Z,23.30
2018-04-29T12:31:40.440Z,21.80
2018-04-29T12:35:43.238Z,21.60
2018-04-29T12:39:45.933Z,21.40
2018-04-29T12:43:48.721Z,21.90
2018-04-29T12:47:51.480Z,20.60
2018-04-29T12:51:54.205Z,21.40
2018-04-29T12:55:57.131Z,22.50
2018-04-29T12:59:59.879Z,23.90
2018-04-29T13:04:03.400Z,22.60
2018-04-29T13:08:06.177Z,22.50
2018-04-29T13:12:10.155Z,20.50
2018-04-29T13:16:12.874Z,21.20
2018-04-29T13:20:15.750Z,20.50
2018-04-29T13:24:18.480Z,21.50
2018-04-29T13:28:21.973Z,20.90
2018-04-29T13:32:24.797Z,20.90
2018-04-29T13:36:28.311Z,21.90
2018-04-29T13:40:31.123Z,21.90
2018-04-29T13:44:33.962Z,22.10
2018-04-29T13:48:36.698Z,21.90
2018-04-29T13:52:39.473Z,22.20
2018-04-29T13:56:42.209Z,22.50
2018-04-29T14:00:44.961Z,22.80
2018-04-29T14:04:47.669Z,25.10
2018-04-29T14:08:50.464Z,27.60
2018-04-29T14:12:53.196Z,29.20
2018-04-29T14:16:59.929Z,30.90
2018-04-29T14:21:02.803Z,31.10
2018-04-29T14:25:05.526Z,32.50
2018-04-29T14:29:08.261Z,33.80
2018-04-29T14:33:11.821Z,34.40
2018-04-29T14:37:14.602Z,34.30
2018-04-29T14:41:17.402Z,37.10
2018-04-29T14:45:20.186Z,43.90
2018-04-29T14:49:23.716Z,40.20
2018-04-29T14:53:26.449Z,40.00
2018-04-29T14:57:29.184Z,48.00
2018-04-29T15:01:32.658Z,49.40
2018-04-29T15:05:35.383Z,50.10
2018-04-29T15:09:38.093Z,40.50
2018-04-29T15:13:40.881Z,46.40
2018-04-29T15:17:43.613Z,48.90
2018-04-29T15:21:46.316Z,51.10
2018-04-29T15:25:49.144Z,51.00
2018-04-29T15:29:52.659Z,53.00
2018-04-29T15:33:55.395Z,53.10
2018-04-29T15:37:58.930Z,54.10
2018-04-29T15:42:01.678Z,54.10
2018-04-29T15:46:05.213Z,54.80
2018-04-29T15:50:07.945Z,55.10
2018-04-29T15:54:10.803Z,57.20
2018-04-29T15:58:14.191Z,59.00
2018-04-29T16:02:17.766Z,57.90
2018-04-29T16:06:21.239Z,57.90
2018-04-29T16:10:24.008Z,54.60
2018-04-29T16:14:26.962Z,55.70
2018-04-29T16:18:30.454Z,49.90
2018-04-29T16:22:33.638Z,49.80
2018-04-29T16:26:37.219Z,49.20
2018-04-29T16:30:39.967Z,49.20
2018-04-29T16:34:44.452Z,52.10
2018-04-29T16:38:47.225Z,52.20
2018-04-29T16:42:50.745Z,56.60
2018-04-29T16:46:53.471Z,56.60
2018-04-29T16:50:56.253Z,56.70
2018-04-29T16:54:58.990Z,59.20
2018-04-29T16:59:01.749Z,60.90
2018-04-29T17:03:04.539Z,60.80
2018-04-29T17:07:08.055Z,62.10
2018-04-29T17:11:10.875Z,62.10
2018-04-29T17:15:13.739Z,62.20
2018-04-29T17:19:17.277Z,62.50
2018-04-29T17:23:20.016Z,62.30
2018-04-29T17:27:22.752Z,61.60
2018-04-29T17:31:25.533Z,62.20
2018-04-29T17:35:28.333Z,63.90
2018-04-29T17:39:31.149Z,66.00
2018-04-29T17:43:34.683Z,65.60
2018-04-29T17:47:37.429Z,65.50
2018-04-29T17:51:40.238Z,67.70
2018-04-29T17:55:43.001Z,68.60
2018-04-29T17:59:45.732Z,68.80
2018-04-29T18:03:48.485Z,71.60
2018-04-29T18:07:51.211Z,71.80
2018-04-29T18:11:53.941Z,72.90
2018-04-29T18:15:57.539Z,72.30
2018-04-29T18:20:00.373Z,72.30
2018-04-29T18:24:03.134Z,72.50
2018-04-29T18:28:05.939Z,73.70
2018-04-29T18:32:08.657Z,74.30
2018-04-29T18:36:12.192Z,76.40
2018-04-29T18:40:15.087Z,76.30
2018-04-29T18:44:17.826Z,75.80
2018-04-29T18:48:20.557Z,77.50
2018-04-29T18:52:24.063Z,78.20
2018-04-29T18:56:26.801Z,77.80
2018-04-29T19:00:29.565Z,77.70
2018-04-29T19:04:32.328Z,77.70
2018-04-29T19:08:35.887Z,78.70
2018-04-29T19:12:39.469Z,79.20
2018-04-29T19:16:42.199Z,79.10
2018-04-29T19:20:45.777Z,79.80
2018-04-29T19:24:48.528Z,79.80
2018-04-29T19:28:51.343Z,80.30
2018-04-29T19:32:54.068Z,81.30
2018-04-29T19:36:56.837Z,81.00
2018-04-29T19:40:59.569Z,80.90
2018-04-29T19:45:02.300Z,82.10
2018-04-29T19:49:05.820Z,82.40
2018-04-29T19:53:09.373Z,83.20
2018-04-29T19:57:12.232Z,83.20
2018-04-29T20:01:14.983Z,84.10
2018-04-29T20:05:17.714Z,84.70
2018-04-29T20:09:21.245Z,85.80
2018-04-29T20:13:24.791Z,85.50
2018-04-29T20:17:27.534Z,85.50
2018-04-29T20:21:30.272Z,86.50
2018-04-29T20:25:33.209Z,86.40
2018-04-29T20:29:36.170Z,87.40
2018-04-29T20:33:39.062Z,88.10
2018-04-29T20:37:41.937Z,87.80
2018-04-29T20:41:44.816Z,88.00
2018-04-29T20:45:47.759Z,89.00
2018-04-29T20:49:51.366Z,89.00
2018-04-29T20:53:55.078Z,89.30
2018-04-29T20:57:58.057Z,89.20
2018-04-29T21:02:00.952Z,89.00
2018-04-29T21:06:03.834Z,89.80
2018-04-29T21:10:06.752Z,90.20
2018-04-29T21:14:09.690Z,90.40
2018-04-29T21:18:13.295Z,90.50
2018-04-29T21:22:16.199Z,90.50
2018-04-29T21:26:26.766Z,90.70
2018-04-29T21:30:29.489Z,91.00
2018-04-29T21:34:33.018Z,91.00
2018-04-29T21:38:36.506Z,91.30
2018-04-29T21:42:39.272Z,91.30
2018-04-29T21:46:42.067Z,91.60
2018-04-29T21:50:44.840Z,91.80
2018-04-29T21:54:47.632Z,91.90
2018-04-29T21:58:51.155Z,91.90
2018-04-29T22:02:53.907Z,91.90
2018-04-29T22:06:56.746Z,91.70
2018-04-29T22:11:00.282Z,92.10
2018-04-29T22:15:03.406Z,92.10
2018-04-29T22:19:07.297Z,92.10
2018-04-29T22:23:10.138Z,92.00
2018-04-29T22:27:12.861Z,92.00
2018-04-29T22:31:15.576Z,92.10
2018-04-29T22:35:18.379Z,92.30
2018-04-29T22:39:21.848Z,92.50
2018-04-29T22:43:24.653Z,92.40
2018-04-29T22:47:27.399Z,92.70
2018-04-29T22:51:30.223Z,92.50
2018-04-29T22:55:32.987Z,92.90
2018-04-29T22:59:35.739Z,93.00
2018-04-29T23:03:39.217Z,92.90
2018-04-29T23:07:41.990Z,92.90
2018-04-29T23:11:45.570Z,92.90
2018-04-29T23:15:48.293Z,92.90
2018-04-29T23:19:51.779Z,93.10
2018-04-29T23:23:54.523Z,93.10
2018-04-29T23:27:57.223Z,92.90
2018-04-29T23:31:59.994Z,92.80
2018-04-29T23:36:02.702Z,93.20
2018-04-29T23:40:09.797Z,93.60
2018-04-29T23:44:13.521Z,93.30
2018-04-29T23:48:17.021Z,93.70
2018-04-29T23:52:19.806Z,93.70
2018-04-29T23:56:22.599Z,93.60
